• Join FlightAware (Why Join?)
  • Login
  • US Flag 
05:54AM EDT


 

Airport Tracker/Info


-or-


 

Live Flight TrackerFlight Track Log ✈ AAL700 ✈ 20-Aug-2013 ✈ KDFW - KLGA

Flight Track Log - Related Links

Times and Time Zones

All times are in EDT time to prevent confusion due to time zone crossing. See the AAL700 flight status page for this flight to view local times or setup timezone preferences in your user account.

Time Position Orientation Groundspeed Altitude Reporting Facility
EDT Latitude Longitude Course Direction KTS MPH feet Rate Location/Type
07:12AM 32.8833 -97.0333 67° East 178 205 1,100  Level Dallas / Fort Worth TRACON
07:13AM 32.8500 -97.0167 157° South 167 192 2,500 1,440 Climbing Dallas / Fort Worth TRACON
07:14AM 32.7667 -96.8406 90° East  Level FlightAware Approximate
07:14AM 32.7833 -96.9833 157° South 260 299 3,900  Level Dallas / Fort Worth TRACON
07:15AM 32.8060 -96.6986 68° East  Level FlightAware Approximate
07:15AM 32.8000 -96.9167 73° East 280 322 5,800  Level Dallas / Fort Worth TRACON
07:16AM 32.8668 -96.5665 59° Northeast  Level FlightAware Approximate
07:16AM 32.8167 -96.8333 77° East 278 320 8,700  Level Dallas / Fort Worth TRACON
07:17AM 32.9247 -96.4323 67° East  Level FlightAware Approximate
07:17AM 32.8500 -96.7167 71° East 316 364 10,800  Level Dallas / Fort Worth TRACON
07:18AM 32.9075 -96.5450 68° East 373 429 13,900 2,100 Climbing Fort Worth Center
07:19AM 32.9422 -96.4258 71° East 373 429 16,400 2,220 Climbing Fort Worth Center
07:20AM 32.9725 -96.3114 72° East 385 443 18,400 2,160 Climbing Fort Worth Center
07:21AM 32.9922 -96.1675 81° East 397 457 20,800 2,100 Climbing Fort Worth Center
07:22AM 33.0117 -96.0433 79° East 412 474 22,600 1,800 Climbing Fort Worth Center
07:23AM 33.0289 -95.9019 82° East 417 480 24,500 1,800 Climbing Fort Worth Center
07:24AM 33.0481 -95.7603 81° East 428 493 26,200 1,560 Climbing Fort Worth Center
07:25AM 33.0689 -95.6136 80° East 428 493 27,700 1,380 Climbing Fort Worth Center
07:26AM 33.1042 -95.4519 75° East 435 501 29,000 1,380 Climbing Fort Worth Center
07:27AM 33.1497 -95.3044 70° East 457 526 30,500 1,560 Climbing Fort Worth Center
07:28AM 33.1950 -95.1544 70° East 469 540 32,200 1,500 Climbing Fort Worth Center
07:29AM 33.2403 -95.0067 70° East 469 540 33,600 1,320 Climbing Fort Worth Center
07:30AM 33.2856 -94.8639 69° East 469 540 34,900 1,200 Climbing Fort Worth Center
07:31AM 33.3283 -94.7133 71° East 469 540 36,100 1,080 Climbing Fort Worth Center
07:32AM 33.3731 -94.5653 70° East 474 545 37,100 1,020 Climbing Fort Worth Center
07:33AM 33.4175 -94.4147 70° East 474 545 38,200 900 Climbing Fort Worth Center
07:34AM 33.4600 -94.2714 70° East 469 540 39,000 360 Climbing Fort Worth Center
07:35AM 33.5064 -94.1225 69° East 463 533 39,000  Level Fort Worth Center
07:36AM 33.5586 -93.9711 67° East 474 545 39,000  Level Fort Worth Center
07:37AM 33.6131 -93.8269 66° East 479 551 39,000  Level Fort Worth Center
07:38AM 33.6692 -93.6822 65° Northeast 479 551 39,000  Level Fort Worth Center
07:39AM 33.6942 -93.6153 66° East 471 542 39,000  Level Memphis Center
07:40AM 33.7500 -93.4700 65° Northeast 471 542 39,000  Level Memphis Center
07:41AM 33.8036 -93.3269 66° East 471 542 39,000  Level Memphis Center
07:42AM 33.8592 -93.1839 65° Northeast 471 542 39,000  Level Memphis Center
07:43AM 33.9144 -93.0403 65° Northeast 471 542 39,000  Level Memphis Center
07:44AM 33.9675 -92.8967 66° East 471 542 39,000  Level Memphis Center
07:45AM 34.0225 -92.7531 65° Northeast 471 542 39,000  Level Memphis Center
07:46AM 34.0733 -92.6064 67° East 471 542 39,000  Level Memphis Center
07:47AM 34.1258 -92.4597 67° East 471 542 39,000  Level Memphis Center
07:48AM 34.1825 -92.3131 65° Northeast 476 548 39,000  Level Memphis Center
07:49AM 34.2347 -92.1661 67° East 476 548 39,000  Level Memphis Center
07:50AM 34.2889 -92.0189 66° East 476 548 39,000  Level Memphis Center
07:51AM 34.3431 -91.8739 66° East 476 548 39,000  Level Memphis Center
07:52AM 34.3969 -91.7239 66° East 476 548 39,000  Level Memphis Center
07:53AM 34.4464 -91.5939 65° Northeast 464 534 39,000  Level Memphis Center
07:54AM 34.5061 -91.4333 66° East 471 542 39,000  Level Memphis Center
07:55AM 34.5575 -91.2828 67° East 477 549 39,000  Level Memphis Center
07:56AM 34.6128 -91.1369 65° Northeast 477 549 39,000  Level Memphis Center
07:57AM 34.6658 -90.9858 67° East 477 549 39,000  Level Memphis Center
07:58AM 34.7206 -90.8347 66° East 477 549 39,000  Level Memphis Center
07:59AM 34.7733 -90.6833 67° East 477 549 39,000  Level Memphis Center
08:00AM 34.8258 -90.5342 67° East 477 549 39,000  Level Memphis Center
08:01AM 34.8800 -90.3797 67° East 477 549 39,000  Level Memphis Center
08:02AM 34.9342 -90.2306 66° East 477 549 39,000  Level Memphis Center
08:03AM 34.9819 -90.0936 67° East 477 549 39,000  Level Memphis Center
08:04AM 35.0381 -89.9411 66° East 483 556 39,000  Level Memphis Center
08:05AM 35.0936 -89.7836 67° East 493 567 39,000  Level Memphis Center
08:06AM 35.1511 -89.6131 68° East 493 567 39,000  Level Memphis Center
08:07AM 35.2064 -89.4575 66° East 493 567 39,000  Level Memphis Center
08:08AM 35.2572 -89.3069 67° East 493 567 39,000  Level Memphis Center
08:09AM 35.3103 -89.1536 67° East 488 562 39,000  Level Memphis Center
08:10AM 35.3628 -89.0025 67° East 483 556 39,000  Level Memphis Center
08:11AM 35.4153 -88.8514 67° East 475 547 39,000  Level Memphis Center
08:12AM 35.4594 -88.7103 69° East 475 547 39,000  Level Memphis Center
08:13AM 35.5117 -88.5589 67° East 480 552 39,000  Level Memphis Center
08:14AM 35.5678 -88.4097 65° Northeast 480 552 39,000  Level Memphis Center
08:15AM 35.6194 -88.2500 68° East 480 552 39,000  Level Memphis Center
08:16AM 35.6769 -88.0903 66° East 480 552 39,000  Level Memphis Center
08:17AM 35.7303 -87.9353 67° East 479 551 39,000  Level Memphis Center
08:18AM 35.7794 -87.7778 69° East 486 559 39,000  Level Memphis Center
08:19AM 35.8303 -87.6250 68° East 486 559 39,000  Level Memphis Center
08:20AM 35.8808 -87.4697 68° East 480 552 39,000  Level Memphis Center
08:21AM 35.9336 -87.3114 68° East 487 560 39,000  Level Memphis Center
08:22AM 35.9839 -87.1556 68° East 482 555 39,000  Level Memphis Center
08:23AM 36.0339 -86.9997 68° East 482 555 39,000  Level Memphis Center
08:24AM 36.0814 -86.8386 70° East 488 562 39,000  Level Memphis Center
08:25AM 36.1331 -86.6794 68° East 495 570 39,000  Level Memphis Center
08:26AM 36.1847 -86.5231 68° East 495 570 39,000  Level Memphis Center
08:27AM 36.2381 -86.3661 67° East 495 570 39,000  Level Memphis Center
08:29AM 36.3250 -86.1022 68° East 490 564 39,000  Level Indianapolis Center
08:30AM 36.3761 -85.9433 68° East 489 563 39,000  Level Indianapolis Center
08:31AM 36.4219 -85.7961 69° East 495 570 39,000  Level Indianapolis Center
08:32AM 36.4828 -85.6053 68° East 494 568 39,000  Level Indianapolis Center
08:33AM 36.5319 -85.4447 69° East 495 570 39,000  Level Indianapolis Center
08:34AM 36.5825 -85.2842 69° East 498 573 39,000  Level Indianapolis Center
08:35AM 36.6311 -85.1247 69° East 492 566 39,000  Level Indianapolis Center
08:36AM 36.6808 -84.9647 69° East 492 566 39,000  Level Indianapolis Center
08:37AM 36.7297 -84.8050 69° East 492 566 39,000  Level Indianapolis Center
08:38AM 36.7786 -84.6458 69° East 490 564 39,000  Level Indianapolis Center
08:39AM 36.8261 -84.4864 70° East 492 566 39,000  Level Indianapolis Center
08:40AM 36.8831 -84.3011 69° East 491 565 39,000  Level Indianapolis Center
08:41AM 36.9300 -84.1403 70° East 493 567 39,000  Level Indianapolis Center
08:42AM 36.9794 -83.9808 69° East 493 567 39,000  Level Indianapolis Center
08:43AM 37.0272 -83.8194 70° East 496 571 39,000  Level Indianapolis Center
08:44AM 37.0742 -83.6592 70° East 489 563 39,000  Level Indianapolis Center
08:45AM 37.1206 -83.4961 70° East 493 567 39,000  Level Indianapolis Center
08:46AM 37.1678 -83.3342 70° East 492 566 39,000  Level Indianapolis Center
08:47AM 37.2142 -83.1717 70° East 489 563 39,000  Level Indianapolis Center
08:48AM 37.2697 -82.9803 70° East 494 568 39,000  Level Indianapolis Center
08:49AM 37.3172 -82.8178 70° East 492 566 39,000  Level Indianapolis Center
08:50AM 37.3619 -82.6558 71° East 489 563 39,000  Level Indianapolis Center
08:51AM 37.4078 -82.4947 70° East 487 560 39,000  Level Indianapolis Center
08:52AM 37.4522 -82.3325 71° East 488 562 39,000  Level Indianapolis Center
08:53AM 37.4978 -82.1700 70° East 490 564 39,000  Level Indianapolis Center
08:54AM 37.5431 -82.0067 71° East 493 567 39,000  Level Indianapolis Center
08:55AM 37.5867 -81.8439 71° East 490 564 39,000  Level Indianapolis Center
08:56AM 37.6392 -81.6547 71° East 489 563 39,000  Level Indianapolis Center
08:57AM 37.6833 -81.4906 71° East 492 566 39,000  Level Indianapolis Center
08:58AM 37.7217 -81.3439 72° East 491 565 39,000  Level Indianapolis Center
08:59AM 37.7725 -81.1542 71° East 490 564 39,000  Level Indianapolis Center
09:01AM 37.7889 -80.9894 83° East 485 558 39,000  Level Indianapolis Center
09:02AM 37.8003 -80.8267 85° East 479 551 39,000  Level Indianapolis Center
09:03AM 37.8106 -80.6567 86° East 485 558 39,000  Level Indianapolis Center
09:04AM 37.8225 -80.4614 86° East 487 560 39,000  Level Indianapolis Center
09:05AM 37.8342 -80.2958 85° East 486 559 39,000  Level Indianapolis Center
09:06AM 37.8442 -80.1278 86° East 490 564 39,000  Level Indianapolis Center
09:07AM 37.8556 -79.9258 86° East 492 566 39,000  Level Indianapolis Center
09:08AM 37.8653 -79.7556 86° East 495 570 39,000  Level Indianapolis Center
09:09AM 37.8753 -79.5856 86° East 494 568 39,000  Level Indianapolis Center
09:10AM 37.8925 -79.3783 84° East 494 568 39,000  Level Washington Center
09:11AM 37.9000 -79.2050 87° East 494 568 39,000  Level Washington Center
09:12AM 37.9133 -79.0319 84° East 494 568 39,000  Level Washington Center
09:13AM 37.9353 -78.8433 82° East 494 568 39,000  Level Washington Center
09:14AM 37.9586 -78.6731 80° East 494 568 39,000  Level Washington Center
09:15AM 37.9775 -78.4975 82° East 499 574 39,000  Level Washington Center
09:16AM 37.9983 -78.3244 81° East 499 574 39,000  Level Washington Center
09:17AM 38.0122 -78.1694 83° East 499 574 39,000  Level Washington Center
09:18AM 38.0286 -77.9775 84° East 499 574 39,000  Level Washington Center
09:19AM 38.0317 -77.8142 89° East 499 574 39,000  Level Washington Center
09:20AM 38.0433 -77.6353 85° East 504 580 39,000  Level Washington Center
09:21AM 38.0569 -77.4325 85° East 511 588 39,000  Level Washington Center
09:22AM 38.1258 -77.2811 60° Northeast 488 562 39,000  Level Washington Center
09:23AM 38.1986 -77.1481 55° Northeast 488 562 39,000  Level Washington Center
09:24AM 38.2817 -77.0017 54° Northeast 501 577 39,000  Level Washington Center
09:25AM 38.3647 -76.8442 56° Northeast 501 577 39,000 -300 Level Washington Center
09:26AM 38.4456 -76.6997 54° Northeast 495 570 38,400 -1,200 Descending Washington Center
09:27AM 38.5258 -76.5550 55° Northeast 495 570 36,600 -1,860 Descending Washington Center
09:28AM 38.6083 -76.4047 55° Northeast 495 570 34,700 -1,980 Descending Washington Center
09:29AM 38.6906 -76.2539 55° Northeast 507 583 32,700 -1,920 Descending Washington Center
09:30AM 38.7706 -76.1108 54° Northeast 507 583 30,900 -1,920 Descending Washington Center
09:31AM 38.8503 -75.9675 54° Northeast 502 578 28,900 -1,980 Descending Washington Center
09:32AM 38.9319 -75.8211 54° Northeast 502 578 27,000 -960 Descending Washington Center
09:33AM 39.0278 -75.7092 42° Northeast 466 536 27,000 -480 Level Washington Center
09:34AM 39.1300 -75.6103 37° Northeast 466 536 26,100 -1,380 Descending Washington Center
09:35AM 39.2342 -75.5139 36° Northeast 461 531 24,300 -1,740 Descending Washington Center
09:36AM 39.3342 -75.4253 34° Northeast 449 517 22,700 -1,620 Descending Washington Center
09:37AM 39.4383 -75.3364 33° Northeast 444 511 21,100 -1,680 Descending Washington Center
09:38AM 39.5339 -75.2497 35° Northeast 432 497 19,400 -1,620 Descending Washington Center
09:39AM 39.6272 -75.1606 36° Northeast 427 491 17,900 -1,440 Descending Washington Center
09:40AM 39.7103 -75.0844 35° Northeast 410 472 16,600 -1,440 Descending Washington Center
09:41AM 39.8119 -75.0000 33° Northeast 398 458 15,100 -1,440 Descending Washington Center
09:42AM 39.8908 -74.9261 36° Northeast 392 451 13,800 -1,440 Descending Washington Center
09:43AM 40.0000 -74.7833 45° Northeast 385 443 11,800 -1,500 Descending New York TRACON
09:44AM 40.0833 -74.6833 43° Northeast 383 441 10,300 -960 Descending New York TRACON
09:45AM 40.1333 -74.6000 52° Northeast 360 414 10,000 -180 Descending New York TRACON
09:46AM 40.2000 -74.5000 49° Northeast 359 413 10,000 -180 Level New York TRACON
09:47AM 40.2667 -74.4167 44° Northeast 311 358 9,700 -720 Descending New York TRACON
09:48AM 40.3167 -74.3500 45° Northeast 278 320 8,700 -1,320 Descending New York TRACON
09:49AM 40.3667 -74.2833 45° Northeast 275 316 7,200 -900 Descending New York TRACON
09:50AM 40.4333 -74.2167 37° Northeast 268 308 7,000 -120 Descending New York TRACON
09:51AM 40.4833 -74.1500 45° Northeast 271 312 7,000 -660 Level New York TRACON
09:52AM 40.5333 -74.0833 45° Northeast 266 306 5,700 -1,320 Descending New York TRACON
09:53AM 40.6000 -74.0333 30° Northeast 261 300 4,400 -900 Descending New York TRACON
09:54AM 40.6500 -73.9833 37° Northeast 255 293 4,000 -240 Descending New York TRACON
09:55AM 40.7000 -73.9167 45° Northeast 259 298 4,000  Level New York TRACON
09:56AM 40.7333 -73.8333 62° Northeast 256 295 4,000  Level New York TRACON
09:57AM 40.7667 -73.7667 57° Northeast 250 288 4,000 -300 Level New York TRACON
09:58AM 40.8167 -73.7333 27° Northeast 188 216 3,500 -660 Descending New York TRACON
09:59AM 40.8667 -73.7000 27° Northeast 189 217 2,800 -840 Descending New York TRACON
10:00AM 40.8833 -73.7500 294° West 185 213 2,000 -540 Descending New York TRACON
10:01AM 40.8667 -73.8000 246° West 195 224 1,800 -600 Descending New York TRACON
10:02AM 40.8167 -73.8333 207° Southwest 151 174 900 -900 Descending New York TRACON